Terminal Aerodrome Forecast
Issued by NWS

Home | Current Version | Previous Version | Text Only | Print | Product List | Glossary On
Versions: 1 2 3 4 5 6 7 8 9 10 11 12 13 14
601
FTUS42 KMLB 201736
TAFTIX
TAF
KTIX 201736Z 2018/2118 07014G20KT P6SM FEW035 SCT045 SCT300
     FM210000 07009KT P6SM SCT025
     FM211400 08012G18KT P6SM SCT035 SCT300=

USA.gov is the U.S. government's official web portal to all federal, state and local government web resources and services.